createdAt,value
2022-08-09T00:00:00.576Z,2.80
2022-08-09T00:00:59.888Z,2.70
2022-08-09T00:01:59.874Z,2.90
2022-08-09T00:02:59.858Z,3.00
2022-08-09T00:04:06.346Z,2.80
2022-08-09T00:06:16.230Z,2.60
2022-08-09T00:06:19.695Z,2.80
2022-08-09T00:07:00.814Z,3.10
2022-08-09T00:07:59.987Z,2.80
2022-08-09T00:08:59.829Z,2.80
2022-08-09T00:09:59.792Z,2.80
2022-08-09T00:10:59.780Z,2.70
2022-08-09T00:12:04.353Z,2.70
2022-08-09T00:12:59.769Z,3.00
2022-08-09T00:13:59.761Z,2.80
2022-08-09T00:15:06.384Z,2.80
2022-08-09T00:16:02.800Z,2.60
2022-08-09T00:16:59.730Z,2.60
2022-08-09T00:18:10.614Z,2.70
2022-08-09T00:19:01.725Z,2.40
2022-08-09T00:19:59.739Z,2.40
2022-08-09T00:20:59.704Z,2.50
2022-08-09T00:21:59.702Z,2.40
2022-08-09T00:23:10.065Z,2.60
2022-08-09T00:24:00.687Z,2.40
2022-08-09T00:24:59.699Z,2.40
2022-08-09T00:25:59.672Z,2.70
2022-08-09T00:27:00.657Z,2.60
2022-08-09T00:27:59.653Z,2.60
2022-08-09T00:28:59.648Z,2.80
2022-08-09T00:30:16.408Z,2.60
2022-08-09T00:31:00.628Z,3.00
2022-08-09T00:32:01.158Z,2.50
2022-08-09T00:33:00.611Z,2.60
2022-08-09T00:33:59.599Z,2.60
2022-08-09T00:34:59.632Z,2.50
2022-08-09T00:35:59.588Z,2.50
2022-08-09T00:36:59.585Z,2.70
2022-08-09T00:37:59.572Z,2.70
2022-08-09T00:38:59.567Z,2.70
2022-08-09T00:40:13.967Z,2.70
2022-08-09T00:41:00.581Z,2.40
2022-08-09T00:44:10.642Z,2.50
2022-08-09T00:44:14.088Z,2.60
2022-08-09T00:44:19.801Z,2.60
2022-08-09T00:45:03.550Z,2.40
2022-08-09T00:46:00.511Z,2.60
2022-08-09T00:47:04.692Z,2.70
2022-08-09T00:48:00.488Z,2.90
2022-08-09T00:49:00.869Z,2.50
2022-08-09T00:49:59.503Z,2.60
2022-08-09T00:50:59.474Z,3.00
2022-08-09T00:52:05.266Z,2.80
2022-08-09T00:53:00.451Z,2.70
2022-08-09T00:54:00.449Z,2.70
2022-08-09T00:55:00.441Z,2.50
2022-08-09T00:56:05.534Z,2.60
2022-08-09T00:57:00.428Z,2.40
2022-08-09T00:57:59.574Z,2.70
2022-08-09T00:58:59.409Z,2.50
2022-08-09T00:59:59.482Z,2.80
2022-08-09T01:00:59.499Z,2.70
2022-08-09T01:01:59.412Z,2.40
2022-08-09T01:02:59.380Z,2.90
2022-08-09T01:03:59.368Z,2.70
2022-08-09T01:04:59.396Z,2.60
2022-08-09T01:05:59.366Z,2.80
2022-08-09T01:07:00.347Z,2.90
2022-08-09T01:08:00.972Z,2.80
2022-08-09T01:08:59.776Z,3.00
2022-08-09T01:10:00.363Z,2.70
2022-08-09T01:10:59.315Z,3.00
2022-08-09T01:11:59.317Z,2.70
2022-08-09T01:12:59.316Z,2.90
2022-08-09T01:14:01.783Z,2.60
2022-08-09T01:14:59.407Z,2.90
2022-08-09T01:15:59.293Z,3.00
2022-08-09T01:16:59.274Z,2.90
2022-08-09T01:18:00.277Z,3.00
2022-08-09T01:19:01.896Z,3.10
2022-08-09T01:20:02.887Z,3.10
2022-08-09T01:20:59.255Z,2.90
2022-08-09T01:21:59.388Z,2.70
2022-08-09T01:22:59.230Z,2.70
2022-08-09T01:24:02.149Z,2.60
2022-08-09T01:25:00.797Z,2.80
2022-08-09T01:25:59.212Z,3.00
2022-08-09T01:26:59.423Z,3.00
2022-08-09T01:27:59.196Z,2.90
2022-08-09T01:28:59.189Z,3.20
2022-08-09T01:29:59.188Z,2.90
2022-08-09T01:32:29.729Z,3.20
2022-08-09T01:32:30.768Z,3.00
2022-08-09T01:33:00.155Z,2.90
2022-08-09T01:33:59.150Z,3.10
2022-08-09T01:34:59.152Z,3.20
2022-08-09T01:36:00.166Z,2.90
2022-08-09T01:36:59.129Z,2.90
2022-08-09T01:38:09.317Z,2.90
2022-08-09T01:39:00.115Z,3.20
2022-08-09T01:39:59.110Z,3.20
2022-08-09T01:41:02.960Z,3.20
2022-08-09T01:42:03.098Z,3.10
2022-08-09T01:43:00.081Z,3.10
2022-08-09T01:43:59.071Z,2.90
2022-08-09T01:44:59.249Z,3.10
2022-08-09T01:45:59.083Z,2.90
2022-08-09T01:46:59.056Z,3.30
2022-08-09T01:47:59.047Z,2.90
2022-08-09T01:48:59.839Z,3.00
2022-08-09T01:49:59.026Z,3.10
2022-08-09T01:50:59.049Z,3.10
2022-08-09T01:51:59.018Z,2.90
2022-08-09T01:52:59.999Z,3.20
2022-08-09T01:53:59.009Z,3.30
2022-08-09T01:54:58.982Z,3.10
2022-08-09T01:55:59.007Z,3.20
2022-08-09T01:56:58.975Z,3.00
2022-08-09T01:57:59.963Z,2.60
2022-08-09T01:58:58.958Z,2.70
2022-08-09T01:59:59.842Z,2.70
2022-08-09T02:00:59.021Z,3.00
2022-08-09T02:02:01.070Z,2.90
2022-08-09T02:02:59.926Z,3.00
2022-08-09T02:03:58.918Z,2.90
2022-08-09T02:05:02.727Z,3.10
2022-08-09T02:06:06.314Z,2.90
2022-08-09T02:07:02.547Z,3.00
2022-08-09T02:08:38.549Z,2.80
2022-08-09T02:08:59.979Z,3.00
2022-08-09T02:10:01.363Z,3.10
2022-08-09T02:10:58.880Z,3.30
2022-08-09T02:11:58.851Z,2.90
2022-08-09T02:12:58.847Z,3.20
2022-08-09T02:14:07.224Z,3.30
2022-08-09T02:14:59.827Z,3.00
2022-08-09T02:15:58.845Z,2.80
2022-08-09T02:17:15.086Z,3.20
2022-08-09T02:18:09.886Z,3.00
2022-08-09T02:18:59.791Z,3.00
2022-08-09T02:19:58.788Z,3.00
2022-08-09T02:20:58.866Z,3.00
2022-08-09T02:21:58.775Z,3.60
2022-08-09T02:22:58.775Z,3.40
2022-08-09T02:23:58.751Z,3.30
2022-08-09T02:24:58.754Z,3.30
2022-08-09T02:25:58.762Z,3.50
2022-08-09T02:26:58.903Z,3.50
2022-08-09T02:28:03.858Z,3.20
2022-08-09T02:29:00.719Z,3.70
2022-08-09T02:29:58.711Z,3.30
2022-08-09T02:30:58.726Z,3.60
2022-08-09T02:31:58.696Z,3.50
2022-08-09T02:32:59.427Z,3.00
2022-08-09T02:34:10.860Z,3.60
2022-08-09T02:34:59.670Z,3.50
2022-08-09T02:36:02.860Z,3.30
2022-08-09T02:36:59.654Z,3.30
2022-08-09T02:37:58.645Z,3.20
2022-08-09T02:38:58.654Z,3.40
2022-08-09T02:40:01.368Z,3.40
2022-08-09T02:40:58.645Z,2.80
2022-08-09T02:41:58.611Z,2.70
2022-08-09T02:43:00.004Z,3.00
2022-08-09T02:43:58.597Z,3.10
2022-08-09T02:44:58.588Z,2.90
2022-08-09T02:45:58.577Z,3.00
2022-08-09T02:46:58.605Z,3.20
2022-08-09T02:47:59.623Z,2.90
2022-08-09T02:48:58.614Z,3.10
2022-08-09T02:50:01.461Z,3.30
2022-08-09T02:50:58.554Z,2.80
2022-08-09T02:51:58.563Z,2.90
2022-08-09T02:52:58.531Z,3.20
2022-08-09T02:54:00.341Z,3.10
2022-08-09T02:54:58.519Z,2.90
2022-08-09T02:55:59.014Z,3.00
2022-08-09T02:56:58.527Z,3.20
2022-08-09T02:58:00.385Z,3.10
2022-08-09T02:58:59.776Z,2.90
2022-08-09T03:00:20.784Z,3.00
2022-08-09T03:00:59.536Z,3.00
2022-08-09T03:02:06.057Z,3.10
2022-08-09T03:03:00.292Z,3.00
2022-08-09T03:04:17.193Z,3.00
2022-08-09T03:04:59.440Z,3.00
2022-08-09T03:05:58.435Z,2.60
2022-08-09T03:06:59.727Z,2.90
2022-08-09T03:07:59.417Z,3.50
2022-08-09T03:08:58.412Z,3.00
2022-08-09T03:10:00.452Z,2.80
2022-08-09T03:10:58.394Z,3.00
2022-08-09T03:12:05.792Z,3.10
2022-08-09T03:12:59.383Z,3.10
2022-08-09T03:14:01.304Z,3.10
2022-08-09T03:14:58.360Z,3.20
2022-08-09T03:16:05.749Z,3.40
2022-08-09T03:16:59.376Z,3.20
2022-08-09T03:17:59.014Z,3.10
2022-08-09T03:18:58.337Z,3.50
2022-08-09T03:20:03.439Z,3.50
2022-08-09T03:20:59.317Z,3.40
2022-08-09T03:21:58.333Z,3.60
2022-08-09T03:23:14.509Z,3.60
2022-08-09T03:24:04.865Z,3.30
2022-08-09T03:25:21.671Z,3.40
2022-08-09T03:26:04.638Z,3.50
2022-08-09T03:26:59.311Z,3.10
2022-08-09T03:27:58.268Z,3.50
2022-08-09T03:28:58.265Z,3.30
2022-08-09T03:30:01.279Z,3.30
2022-08-09T03:30:59.244Z,3.50
2022-08-09T03:31:59.672Z,3.30
2022-08-09T03:32:58.231Z,3.20
2022-08-09T03:33:58.216Z,3.60
2022-08-09T03:34:58.214Z,3.40
2022-08-09T03:36:12.848Z,3.50
2022-08-09T03:37:02.236Z,3.20
2022-08-09T03:37:58.670Z,3.10
2022-08-09T03:38:58.177Z,3.00
2022-08-09T03:39:58.222Z,3.20
2022-08-09T03:40:58.421Z,3.00
2022-08-09T03:42:06.371Z,3.30
2022-08-09T03:42:59.144Z,3.10
2022-08-09T03:44:07.990Z,3.20
2022-08-09T03:44:59.136Z,3.20
2022-08-09T03:46:04.648Z,3.10
2022-08-09T03:46:59.189Z,3.40
2022-08-09T03:47:58.106Z,3.30
2022-08-09T03:48:58.101Z,3.40
2022-08-09T03:49:58.954Z,3.40
2022-08-09T03:50:58.110Z,3.10
2022-08-09T03:52:00.435Z,3.50
2022-08-09T03:53:00.071Z,3.00
2022-08-09T03:53:59.025Z,3.20
2022-08-09T03:54:58.057Z,3.20
2022-08-09T03:55:58.054Z,3.10
2022-08-09T03:56:58.346Z,3.40
2022-08-09T03:58:06.552Z,3.30
2022-08-09T03:58:59.023Z,3.30
2022-08-09T04:00:01.251Z,3.10
2022-08-09T04:00:58.044Z,3.20
2022-08-09T04:01:59.187Z,3.30
2022-08-09T04:02:57.993Z,3.30
2022-08-09T04:04:02.317Z,3.50
2022-08-09T04:04:59.231Z,3.40
2022-08-09T04:05:57.974Z,3.00
2022-08-09T04:06:58.063Z,3.40
2022-08-09T04:07:57.963Z,3.10
2022-08-09T04:08:57.945Z,3.30
2022-08-09T04:09:58.011Z,3.20
2022-08-09T04:11:01.352Z,3.40
2022-08-09T04:11:57.949Z,3.40
2022-08-09T04:12:57.914Z,3.00
2022-08-09T04:14:53.225Z,2.90
2022-08-09T04:15:01.403Z,3.20
2022-08-09T04:16:19.986Z,3.60
2022-08-09T04:16:58.914Z,3.10
2022-08-09T04:17:57.981Z,3.20
2022-08-09T04:18:57.873Z,3.40
2022-08-09T04:19:57.865Z,3.30
2022-08-09T04:20:57.856Z,3.10
2022-08-09T04:21:57.890Z,3.40
2022-08-09T04:22:57.951Z,3.30
2022-08-09T04:23:57.978Z,3.30
2022-08-09T04:24:58.838Z,3.40
2022-08-09T04:25:57.831Z,3.20
2022-08-09T04:26:57.814Z,3.60
2022-08-09T04:28:03.702Z,3.80
2022-08-09T04:28:58.343Z,3.70
2022-08-09T04:29:58.785Z,3.50
2022-08-09T04:30:57.779Z,3.40
2022-08-09T04:31:59.347Z,3.50
2022-08-09T04:32:57.788Z,3.40
2022-08-09T04:33:59.330Z,3.50
2022-08-09T04:34:57.827Z,3.70
2022-08-09T04:35:57.743Z,3.60
2022-08-09T04:36:57.732Z,3.90
2022-08-09T04:37:57.742Z,3.80
2022-08-09T04:38:57.724Z,3.70
2022-08-09T04:39:57.709Z,3.30
2022-08-09T04:40:57.702Z,3.40
2022-08-09T04:41:59.847Z,3.50
2022-08-09T04:42:57.706Z,3.60
2022-08-09T04:44:07.325Z,3.70
2022-08-09T04:45:01.563Z,3.70
2022-08-09T04:45:57.661Z,3.40
2022-08-09T04:47:04.306Z,3.90
2022-08-09T04:48:03.025Z,3.30
2022-08-09T04:48:58.637Z,3.50
2022-08-09T04:49:57.641Z,3.40
2022-08-09T04:50:58.515Z,3.90
2022-08-09T04:51:57.611Z,3.40
2022-08-09T04:52:58.623Z,3.60
2022-08-09T04:53:58.602Z,3.70
2022-08-09T04:54:59.456Z,3.60
2022-08-09T04:55:59.617Z,3.80
2022-08-09T04:56:57.594Z,3.50
2022-08-09T04:57:58.748Z,3.60
2022-08-09T04:58:58.562Z,3.70
2022-08-09T04:59:57.551Z,3.70
2022-08-09T05:00:57.631Z,3.70
2022-08-09T05:01:57.546Z,3.50
2022-08-09T05:02:57.560Z,3.80
2022-08-09T05:03:58.722Z,3.70
2022-08-09T05:04:58.517Z,3.40
2022-08-09T05:06:06.787Z,4.00
2022-08-09T05:06:58.510Z,3.60
2022-08-09T05:07:57.517Z,3.90
2022-08-09T05:09:00.787Z,3.70
2022-08-09T05:09:59.031Z,3.80
2022-08-09T05:10:57.567Z,3.80
2022-08-09T05:11:57.463Z,3.80
2022-08-09T05:12:57.484Z,3.50
2022-08-09T05:13:57.457Z,3.70
2022-08-09T05:14:57.435Z,3.40
2022-08-09T05:15:58.435Z,4.00
2022-08-09T05:16:58.988Z,3.80
2022-08-09T05:18:50.919Z,3.60
2022-08-09T05:18:59.887Z,4.00
2022-08-09T05:19:58.254Z,3.60
2022-08-09T05:20:57.389Z,3.90
2022-08-09T05:21:57.387Z,3.60
2022-08-09T05:23:54.427Z,3.60
2022-08-09T05:24:01.722Z,3.70
2022-08-09T05:24:57.389Z,3.60
2022-08-09T05:25:57.359Z,3.70
2022-08-09T05:26:57.358Z,4.00
2022-08-09T05:27:57.370Z,3.90
2022-08-09T05:28:57.363Z,3.70
2022-08-09T05:29:57.327Z,3.90
2022-08-09T05:30:57.320Z,3.80
2022-08-09T05:31:58.486Z,3.60
2022-08-09T05:32:58.330Z,4.00
2022-08-09T05:33:57.298Z,3.80
2022-08-09T05:34:57.297Z,3.60
2022-08-09T05:35:57.331Z,4.00
2022-08-09T05:36:57.283Z,3.90
2022-08-09T05:37:57.297Z,4.00
2022-08-09T05:38:57.273Z,3.50
2022-08-09T05:39:57.316Z,3.90
2022-08-09T05:40:57.247Z,3.80
2022-08-09T05:42:01.622Z,4.10
2022-08-09T05:42:58.265Z,4.00
2022-08-09T05:43:57.212Z,3.80
2022-08-09T05:44:58.216Z,3.70
2022-08-09T05:45:57.975Z,3.80
2022-08-09T05:46:57.202Z,3.50
2022-08-09T05:48:01.322Z,3.80
2022-08-09T05:48:58.832Z,4.00
2022-08-09T05:50:26.003Z,4.00
2022-08-09T05:51:16.901Z,3.70
2022-08-09T05:51:59.159Z,3.90
2022-08-09T05:52:57.156Z,3.70
2022-08-09T05:53:57.904Z,3.70
2022-08-09T05:54:57.142Z,3.80
2022-08-09T05:55:58.138Z,3.90
2022-08-09T05:56:57.140Z,3.70
2022-08-09T05:57:58.248Z,3.60
2022-08-09T05:58:58.818Z,4.10
2022-08-09T05:59:58.108Z,3.40
2022-08-09T06:00:57.097Z,3.70
2022-08-09T06:01:59.087Z,4.00
2022-08-09T06:02:57.476Z,3.80
2022-08-09T06:03:58.759Z,3.80
2022-08-09T06:04:57.072Z,3.90
2022-08-09T06:06:05.787Z,3.70
2022-08-09T06:06:58.052Z,4.00
2022-08-09T06:08:05.303Z,3.90
2022-08-09T06:08:58.058Z,4.00
2022-08-09T06:10:02.084Z,4.10
2022-08-09T06:10:59.141Z,4.00
2022-08-09T06:11:57.965Z,3.40
2022-08-09T06:13:03.051Z,3.90
2022-08-09T06:13:58.045Z,3.90
2022-08-09T06:15:01.092Z,3.90
2022-08-09T06:15:58.027Z,3.60
2022-08-09T06:16:57.248Z,4.00
2022-08-09T06:17:56.998Z,4.00
2022-08-09T06:18:57.000Z,3.80
2022-08-09T06:19:56.947Z,3.50
2022-08-09T06:20:58.311Z,3.80
2022-08-09T06:21:58.892Z,3.50
2022-08-09T06:22:56.926Z,3.90
2022-08-09T06:24:00.889Z,3.20
2022-08-09T06:24:56.912Z,3.50
2022-08-09T06:25:56.905Z,3.80
2022-08-09T06:26:56.902Z,3.50
2022-08-09T06:27:56.887Z,3.50
2022-08-09T06:29:00.912Z,3.50
2022-08-09T06:29:58.560Z,3.70
2022-08-09T06:30:57.856Z,3.50
2022-08-09T06:32:17.312Z,3.70
2022-08-09T06:33:13.720Z,3.70
2022-08-09T06:33:57.923Z,3.70
2022-08-09T06:34:56.826Z,3.60
2022-08-09T06:35:58.583Z,3.50
2022-08-09T06:36:59.697Z,3.50
2022-08-09T06:38:06.023Z,3.60
2022-08-09T06:38:57.826Z,3.90
2022-08-09T06:40:00.246Z,3.90
2022-08-09T06:40:57.783Z,3.60
2022-08-09T06:42:09.027Z,3.50
2022-08-09T06:42:57.774Z,3.80
2022-08-09T06:43:56.799Z,3.60
2022-08-09T06:44:57.333Z,3.60
2022-08-09T06:46:06.399Z,3.80
2022-08-09T06:46:57.742Z,3.40
2022-08-09T06:48:00.631Z,3.40
2022-08-09T06:49:00.059Z,3.20
2022-08-09T06:50:13.221Z,2.80
2022-08-09T06:50:57.708Z,3.40
2022-08-09T06:51:56.699Z,3.00
2022-08-09T06:52:56.690Z,3.10
2022-08-09T06:54:00.765Z,3.20
2022-08-09T06:54:56.732Z,3.30
2022-08-09T06:55:56.673Z,3.50
2022-08-09T06:56:56.664Z,3.20
2022-08-09T06:58:02.917Z,3.50
2022-08-09T07:00:48.755Z,3.20
2022-08-09T07:00:52.320Z,3.10
2022-08-09T07:00:59.677Z,3.30
2022-08-09T07:01:59.650Z,3.40
2022-08-09T07:02:57.619Z,3.20
2022-08-09T07:04:00.698Z,3.30
2022-08-09T07:04:58.630Z,3.50
2022-08-09T07:06:04.845Z,3.30
2022-08-09T07:06:59.984Z,3.40
2022-08-09T07:07:59.971Z,3.10
2022-08-09T07:08:57.573Z,3.10
2022-08-09T07:10:14.285Z,3.10
2022-08-09T07:10:58.584Z,3.50
2022-08-09T07:11:56.544Z,3.20
2022-08-09T07:12:57.160Z,3.10
2022-08-09T07:14:04.283Z,3.00
2022-08-09T07:14:57.528Z,3.10
2022-08-09T07:16:42.831Z,3.10
2022-08-09T07:16:58.364Z,3.30
2022-08-09T07:18:02.334Z,3.20
2022-08-09T07:18:57.529Z,3.10
2022-08-09T07:19:56.489Z,3.10
2022-08-09T07:20:56.485Z,2.70
2022-08-09T07:21:58.852Z,2.90
2022-08-09T07:22:56.796Z,3.20
2022-08-09T07:23:58.211Z,3.10
2022-08-09T07:24:56.447Z,2.90
2022-08-09T07:26:02.545Z,2.90
2022-08-09T07:26:57.436Z,2.90
2022-08-09T07:27:56.446Z,3.00
2022-08-09T07:29:09.070Z,3.10
2022-08-09T07:29:58.457Z,3.10
2022-08-09T07:30:56.402Z,3.10
2022-08-09T07:32:32.617Z,3.10
2022-08-09T07:32:56.390Z,3.40
2022-08-09T07:33:56.406Z,3.20
2022-08-09T07:34:56.405Z,3.10
2022-08-09T07:35:56.372Z,3.10
2022-08-09T07:36:56.364Z,3.20
2022-08-09T07:37:59.432Z,3.20
2022-08-09T07:39:00.966Z,3.10
2022-08-09T07:39:58.415Z,3.20
2022-08-09T07:41:11.924Z,3.30
2022-08-09T07:41:58.331Z,3.00
2022-08-09T07:42:56.368Z,3.10
2022-08-09T07:43:56.756Z,3.10
2022-08-09T07:45:01.434Z,3.20
2022-08-09T07:46:02.961Z,2.90
2022-08-09T07:46:56.290Z,3.30
2022-08-09T07:48:01.690Z,3.30
2022-08-09T07:49:00.217Z,3.20
2022-08-09T07:50:07.717Z,3.20
2022-08-09T07:51:10.033Z,3.40
2022-08-09T07:52:06.047Z,3.20
2022-08-09T07:53:02.240Z,3.20
2022-08-09T07:54:07.073Z,3.20
2022-08-09T07:54:57.587Z,2.90
2022-08-09T07:56:03.672Z,3.50
2022-08-09T07:56:58.467Z,3.30
2022-08-09T07:57:56.217Z,3.60
2022-08-09T07:58:56.199Z,3.10
2022-08-09T08:00:03.749Z,3.40
2022-08-09T08:01:05.894Z,3.30
2022-08-09T08:01:57.266Z,3.20
2022-08-09T08:02:56.169Z,3.30
2022-08-09T08:03:56.165Z,3.30
2022-08-09T08:04:56.183Z,3.00
2022-08-09T08:05:58.372Z,3.00
2022-08-09T08:07:00.307Z,3.20
2022-08-09T08:08:43.500Z,3.10
2022-08-09T08:09:03.450Z,3.50
2022-08-09T08:10:08.100Z,3.30
2022-08-09T08:12:08.676Z,3.20
2022-08-09T08:12:09.762Z,3.20
2022-08-09T08:12:57.093Z,3.30
2022-08-09T08:13:57.805Z,3.10
2022-08-09T08:14:57.048Z,3.20
2022-08-09T08:15:56.076Z,3.30
2022-08-09T08:17:07.404Z,3.20
2022-08-09T08:17:58.106Z,3.20
2022-08-09T08:18:56.037Z,3.30
2022-08-09T08:19:56.066Z,3.20
2022-08-09T08:20:56.053Z,3.20
2022-08-09T08:21:56.017Z,3.00
2022-08-09T08:22:56.013Z,3.40
2022-08-09T08:23:57.019Z,3.30
2022-08-09T08:24:56.028Z,3.10
2022-08-09T08:26:08.079Z,3.20
2022-08-09T08:26:57.024Z,3.30
2022-08-09T08:27:56.972Z,3.20
2022-08-09T08:28:55.967Z,3.30
2022-08-09T08:29:55.969Z,3.20
2022-08-09T08:30:56.043Z,3.20
2022-08-09T08:32:03.816Z,3.20
2022-08-09T08:32:57.954Z,3.00
2022-08-09T08:33:56.258Z,3.20
2022-08-09T08:34:58.506Z,3.30
2022-08-09T08:35:59.143Z,3.10
2022-08-09T08:36:56.905Z,3.10
2022-08-09T08:38:02.239Z,3.30
2022-08-09T08:38:56.894Z,3.30
2022-08-09T08:39:55.926Z,3.40
2022-08-09T08:40:55.903Z,3.30
2022-08-09T08:41:58.707Z,3.20
2022-08-09T08:42:55.883Z,3.00
2022-08-09T08:44:02.004Z,3.20
2022-08-09T08:44:57.878Z,3.10
2022-08-09T08:46:10.022Z,3.00
2022-08-09T08:46:59.710Z,3.00
2022-08-09T08:47:59.077Z,3.20
2022-08-09T08:48:55.815Z,3.10
2022-08-09T08:49:55.830Z,3.10
2022-08-09T08:50:55.797Z,3.20
2022-08-09T08:52:00.251Z,3.00
2022-08-09T08:52:59.906Z,3.50
2022-08-09T08:54:04.505Z,3.20
2022-08-09T08:54:56.797Z,3.10
2022-08-09T08:55:55.761Z,3.20
2022-08-09T08:56:55.761Z,3.10
2022-08-09T08:57:56.960Z,3.10
2022-08-09T08:58:55.738Z,3.00
2022-08-09T08:59:57.252Z,3.10
2022-08-09T09:00:57.074Z,3.20
2022-08-09T09:01:59.593Z,3.10
2022-08-09T09:02:56.024Z,3.00
2022-08-09T09:03:56.771Z,3.10
2022-08-09T09:04:55.722Z,3.10
2022-08-09T09:05:59.793Z,3.10
2022-08-09T09:06:56.678Z,3.30
2022-08-09T09:07:55.670Z,3.30
2022-08-09T09:08:59.784Z,3.20
2022-08-09T09:09:59.571Z,3.10
2022-08-09T09:10:56.924Z,3.10
2022-08-09T09:11:55.639Z,3.30
2022-08-09T09:12:55.626Z,3.10
2022-08-09T09:13:58.503Z,3.00
2022-08-09T09:14:55.609Z,3.20
2022-08-09T09:15:55.658Z,3.20
2022-08-09T09:16:55.622Z,3.20
2022-08-09T09:17:55.587Z,2.90
2022-08-09T09:19:10.807Z,3.00
2022-08-09T09:19:57.580Z,3.20
2022-08-09T09:20:55.618Z,3.30
2022-08-09T09:21:55.561Z,3.00
2022-08-09T09:22:55.736Z,2.90
2022-08-09T09:23:58.441Z,2.80
2022-08-09T09:26:00.407Z,3.00
2022-08-09T09:26:04.822Z,2.90
2022-08-09T09:26:56.527Z,3.00
2022-08-09T09:28:05.396Z,3.10
2022-08-09T09:29:03.622Z,2.80
2022-08-09T09:30:26.152Z,2.80
2022-08-09T09:30:57.544Z,2.30
2022-08-09T09:32:06.425Z,2.60
2022-08-09T09:32:56.480Z,2.60
2022-08-09T09:33:56.697Z,2.60
2022-08-09T09:34:55.462Z,2.60
2022-08-09T09:36:00.739Z,2.50
2022-08-09T09:36:56.448Z,2.40
2022-08-09T09:37:55.452Z,2.60
2022-08-09T09:38:55.428Z,2.50
2022-08-09T09:39:57.693Z,2.10
2022-08-09T09:40:55.446Z,2.40
2022-08-09T09:41:55.411Z,2.30
2022-08-09T09:42:55.401Z,2.60
2022-08-09T09:44:10.912Z,2.60
2022-08-09T09:44:56.387Z,2.50
2022-08-09T09:46:39.575Z,2.30
2022-08-09T09:46:57.379Z,2.50
2022-08-09T09:47:58.516Z,2.30
2022-08-09T09:48:55.381Z,2.30
2022-08-09T09:50:13.962Z,2.20
2022-08-09T09:50:56.368Z,2.10
2022-08-09T09:51:55.332Z,2.10
2022-08-09T09:52:56.254Z,2.40
2022-08-09T09:54:00.865Z,2.50
2022-08-09T09:54:56.313Z,2.60
2022-08-09T09:56:04.406Z,2.50
2022-08-09T09:58:02.377Z,2.40
2022-08-09T09:58:02.378Z,2.30
2022-08-09T09:58:56.286Z,2.30
2022-08-09T09:59:55.284Z,2.20
2022-08-09T10:00:58.764Z,2.30
2022-08-09T10:01:56.269Z,2.20
2022-08-09T10:02:55.269Z,2.40
2022-08-09T10:03:57.687Z,2.50
2022-08-09T10:04:55.238Z,2.50
2022-08-09T10:06:04.012Z,2.40
2022-08-09T10:06:56.229Z,2.50
2022-08-09T10:08:10.748Z,2.50
2022-08-09T10:08:57.792Z,2.30
2022-08-09T10:09:55.372Z,2.20
2022-08-09T10:10:55.593Z,2.50
2022-08-09T10:12:12.020Z,2.20
2022-08-09T10:12:57.554Z,2.30
2022-08-09T10:13:55.191Z,2.30
2022-08-09T10:14:55.168Z,2.20
2022-08-09T10:16:55.239Z,2.30
2022-08-09T10:17:11.380Z,2.20
2022-08-09T10:17:57.060Z,2.40
2022-08-09T10:18:55.140Z,2.30
2022-08-09T10:19:57.189Z,2.40
2022-08-09T10:20:55.151Z,2.30
2022-08-09T10:21:55.121Z,2.30
2022-08-09T10:23:00.416Z,2.70
2022-08-09T10:23:57.103Z,2.50
2022-08-09T10:24:55.098Z,2.30
2022-08-09T10:26:06.836Z,2.40
2022-08-09T10:26:56.075Z,2.40
2022-08-09T10:27:57.900Z,2.40
2022-08-09T10:29:23.251Z,2.50
2022-08-09T10:30:43.562Z,2.50
2022-08-09T10:32:35.714Z,2.20
2022-08-09T10:32:57.039Z,2.50
2022-08-09T10:34:10.453Z,2.30
2022-08-09T10:34:56.022Z,2.40
2022-08-09T10:35:55.038Z,2.40
2022-08-09T10:36:55.011Z,2.40
2022-08-09T10:37:54.998Z,2.60
2022-08-09T10:38:59.796Z,2.70
2022-08-09T10:39:56.029Z,2.30
2022-08-09T10:40:56.421Z,2.60
2022-08-09T10:41:55.039Z,2.80
2022-08-09T10:42:54.960Z,2.60
2022-08-09T10:43:59.908Z,2.40
2022-08-09T10:44:55.940Z,2.40
2022-08-09T10:45:59.995Z,2.50
2022-08-09T10:47:01.220Z,2.60
2022-08-09T10:48:26.407Z,2.50
2022-08-09T10:48:56.652Z,2.60
2022-08-09T10:49:54.917Z,2.50
2022-08-09T10:50:54.898Z,2.60
2022-08-09T10:51:54.912Z,2.30
2022-08-09T10:52:55.894Z,2.70
2022-08-09T10:53:55.131Z,2.30
2022-08-09T10:54:54.876Z,2.30
2022-08-09T10:55:57.812Z,2.50
2022-08-09T10:56:55.884Z,2.20
2022-08-09T10:57:55.666Z,2.50
2022-08-09T10:58:54.849Z,2.40
2022-08-09T10:59:58.165Z,2.40
2022-08-09T11:03:06.511Z,2.50
2022-08-09T11:03:11.853Z,2.60
2022-08-09T11:03:18.429Z,2.40
2022-08-09T11:03:59.870Z,2.40
2022-08-09T11:04:56.791Z,2.20
2022-08-09T11:06:00.364Z,2.20
2022-08-09T11:06:55.801Z,2.30
2022-08-09T11:07:58.383Z,2.30
2022-08-09T11:08:59.562Z,2.30
2022-08-09T11:09:56.538Z,2.50
2022-08-09T11:10:56.590Z,2.20
2022-08-09T11:11:55.767Z,2.30
2022-08-09T11:12:54.738Z,2.60
2022-08-09T11:13:55.073Z,2.40
2022-08-09T11:14:54.714Z,2.40
2022-08-09T11:16:04.664Z,2.30
2022-08-09T11:16:55.723Z,2.30
2022-08-09T11:18:02.706Z,2.60
2022-08-09T11:18:56.515Z,2.40
2022-08-09T11:20:10.262Z,2.30
2022-08-09T11:20:55.671Z,2.40
2022-08-09T11:21:57.229Z,2.30
2022-08-09T11:22:57.199Z,2.40
2022-08-09T11:23:54.649Z,2.30
2022-08-09T11:24:54.640Z,2.20
2022-08-09T11:25:54.935Z,2.30
2022-08-09T11:26:55.093Z,2.10
2022-08-09T11:28:07.993Z,2.10
2022-08-09T11:28:56.041Z,2.00
2022-08-09T11:30:04.599Z,2.20
2022-08-09T11:30:55.629Z,2.30
2022-08-09T11:31:54.944Z,2.20
2022-08-09T11:32:54.578Z,2.20
2022-08-09T11:33:54.572Z,2.30
2022-08-09T11:34:54.578Z,2.20
2022-08-09T11:35:54.591Z,1.90
2022-08-09T11:36:54.552Z,2.40
2022-08-09T11:37:54.546Z,2.30
2022-08-09T11:38:54.543Z,2.40
2022-08-09T11:39:54.570Z,2.30
2022-08-09T11:40:54.990Z,2.70
2022-08-09T11:41:58.566Z,2.10
2022-08-09T11:42:55.517Z,2.40
2022-08-09T11:43:54.505Z,2.30
2022-08-09T11:44:54.494Z,2.60
2022-08-09T11:45:54.529Z,2.40
2022-08-09T11:46:54.488Z,2.70
2022-08-09T11:47:54.605Z,2.40
2022-08-09T11:48:54.472Z,2.70
2022-08-09T11:50:53.815Z,2.40
2022-08-09T11:52:54.088Z,2.40
2022-08-09T11:53:02.282Z,2.80
2022-08-09T11:53:03.500Z,2.50
2022-08-09T11:54:01.639Z,2.30
2022-08-09T11:54:55.442Z,2.50
2022-08-09T11:56:02.469Z,2.60
2022-08-09T11:56:56.436Z,2.70
2022-08-09T11:58:02.242Z,2.30
2022-08-09T11:58:55.393Z,2.60
2022-08-09T11:59:54.376Z,2.60
2022-08-09T12:00:54.409Z,2.50
2022-08-09T12:02:17.680Z,2.60
2022-08-09T12:02:55.490Z,2.50
2022-08-09T12:03:57.019Z,2.50
2022-08-09T12:04:58.049Z,1.90
2022-08-09T12:05:54.374Z,2.70
2022-08-09T12:06:56.037Z,2.60
2022-08-09T12:07:54.740Z,2.60
2022-08-09T12:08:54.321Z,2.50
2022-08-09T12:09:54.321Z,2.50
2022-08-09T12:10:54.332Z,2.60
2022-08-09T12:12:03.116Z,2.60
2022-08-09T12:12:55.295Z,2.50
2022-08-09T12:14:07.483Z,2.40
2022-08-09T12:15:08.244Z,2.60
2022-08-09T12:15:55.308Z,2.60
2022-08-09T12:16:56.398Z,2.50
2022-08-09T12:17:54.253Z,2.50
2022-08-09T12:18:54.337Z,2.90
2022-08-09T12:19:59.570Z,2.40
2022-08-09T12:20:55.275Z,2.80
2022-08-09T12:21:54.228Z,2.70
2022-08-09T12:22:55.893Z,2.60
2022-08-09T12:24:06.087Z,2.60
2022-08-09T12:24:56.210Z,2.10
2022-08-09T12:25:54.246Z,2.50
2022-08-09T12:29:10.495Z,2.50
2022-08-09T12:29:12.310Z,2.50
2022-08-09T12:29:15.409Z,2.70
2022-08-09T12:30:04.522Z,2.40
2022-08-09T12:30:56.191Z,2.60
2022-08-09T12:32:02.761Z,2.40
2022-08-09T12:32:55.186Z,2.30
2022-08-09T12:34:00.768Z,2.60
2022-08-09T12:34:55.130Z,2.60
2022-08-09T12:35:54.140Z,2.70
2022-08-09T12:36:58.979Z,2.50
2022-08-09T12:37:55.098Z,2.50
2022-08-09T12:38:55.127Z,2.60
2022-08-09T12:39:54.095Z,2.40
2022-08-09T12:40:54.083Z,2.20
2022-08-09T12:41:54.110Z,2.30
2022-08-09T12:42:54.084Z,2.40
2022-08-09T12:44:05.198Z,2.30
2022-08-09T12:44:55.089Z,2.60
2022-08-09T12:45:59.999Z,2.60
2022-08-09T12:46:55.098Z,2.40
2022-08-09T12:47:54.038Z,2.40
2022-08-09T12:48:54.033Z,2.80
2022-08-09T12:49:54.040Z,2.80
2022-08-09T12:50:54.047Z,2.50
2022-08-09T12:52:02.752Z,2.50
2022-08-09T12:53:17.763Z,2.60
2022-08-09T12:53:55.172Z,2.40
2022-08-09T12:55:03.003Z,2.50
2022-08-09T12:56:14.002Z,2.40
2022-08-09T12:56:55.012Z,2.70
2022-08-09T12:57:53.976Z,2.70
2022-08-09T12:58:57.931Z,2.60
2022-08-09T13:00:03.116Z,2.40
2022-08-09T13:00:55.068Z,2.60
2022-08-09T13:01:54.044Z,2.60
2022-08-09T13:02:54.313Z,2.40
2022-08-09T13:03:58.786Z,2.40
2022-08-09T13:04:55.922Z,2.40
2022-08-09T13:06:13.231Z,2.60
2022-08-09T13:06:55.036Z,2.80
2022-08-09T13:07:53.911Z,2.60
2022-08-09T13:08:53.895Z,2.70
2022-08-09T13:10:01.243Z,2.70
2022-08-09T13:10:54.893Z,2.80
2022-08-09T13:12:01.969Z,2.80
2022-08-09T13:13:09.940Z,2.70
2022-08-09T13:14:42.138Z,3.10
2022-08-09T13:14:55.248Z,3.00
2022-08-09T13:15:54.839Z,2.60
2022-08-09T13:16:53.910Z,2.50
2022-08-09T13:18:05.263Z,2.60
2022-08-09T13:18:54.824Z,2.50